createdAt,value
2022-09-15T00:00:25.919Z,27.53
2022-09-15T00:01:25.861Z,27.36
2022-09-15T00:02:25.902Z,27.05
2022-09-15T00:03:25.689Z,27.15
2022-09-15T00:04:25.614Z,27.16
2022-09-15T00:05:25.533Z,27.72
2022-09-15T00:06:25.462Z,27.72
2022-09-15T00:07:25.381Z,27.63
2022-09-15T00:08:25.304Z,27.63
2022-09-15T00:09:25.226Z,27.72
2022-09-15T00:10:25.158Z,27.25
2022-09-15T00:11:25.075Z,27.34
2022-09-15T00:12:24.996Z,27.45
2022-09-15T00:13:24.920Z,26.95
2022-09-15T00:14:24.852Z,27.36
2022-09-15T00:15:24.764Z,27.55
2022-09-15T00:16:24.726Z,27.72
2022-09-15T00:17:24.614Z,27.83
2022-09-15T00:18:24.530Z,27.92
2022-09-15T00:19:24.461Z,28.41
2022-09-15T00:20:24.382Z,28.60
2022-09-15T00:21:24.301Z,28.39
2022-09-15T00:22:24.225Z,28.41
2022-09-15T00:23:24.152Z,28.49
2022-09-15T00:24:24.078Z,28.39
2022-09-15T00:25:23.998Z,28.88
2022-09-15T00:26:23.923Z,28.49
2022-09-15T00:27:23.848Z,29.06
2022-09-15T00:28:23.770Z,28.49
2022-09-15T00:29:23.689Z,28.59
2022-09-15T00:30:23.614Z,28.89
2022-09-15T00:31:23.599Z,28.89
2022-09-15T00:32:23.465Z,29.16
2022-09-15T00:33:23.389Z,29.47
2022-09-15T00:34:23.310Z,29.45
2022-09-15T00:35:23.229Z,29.08
2022-09-15T00:36:23.150Z,28.97
2022-09-15T00:37:23.079Z,29.17
2022-09-15T00:38:23.001Z,29.56
2022-09-15T00:39:22.975Z,29.35
2022-09-15T00:40:22.899Z,29.16
2022-09-15T00:41:22.771Z,29.55
2022-09-15T00:42:22.704Z,29.55
2022-09-15T00:43:22.617Z,29.74
2022-09-15T00:44:22.539Z,29.66
2022-09-15T00:45:22.463Z,29.55
2022-09-15T00:46:22.451Z,29.75
2022-09-15T00:47:22.306Z,29.27
2022-09-15T00:48:22.238Z,29.64
2022-09-15T00:49:22.157Z,29.94
2022-09-15T00:50:22.075Z,29.85
2022-09-15T00:51:22.004Z,29.75
2022-09-15T00:52:21.926Z,29.75
2022-09-15T00:53:21.849Z,30.14
2022-09-15T00:54:21.774Z,30.51
2022-09-15T00:55:21.699Z,30.90
2022-09-15T00:56:21.620Z,30.62
2022-09-15T00:57:21.540Z,31.00
2022-09-15T00:58:21.463Z,31.00
2022-09-15T00:59:21.394Z,30.62
2022-09-15T01:00:21.306Z,31.20
2022-09-15T01:01:21.355Z,31.48
2022-09-15T01:02:21.247Z,31.48
2022-09-15T01:03:21.075Z,31.48
2022-09-15T01:04:21.007Z,31.58
2022-09-15T01:05:20.923Z,31.38
2022-09-15T01:06:20.847Z,31.58
2022-09-15T01:07:20.770Z,31.38
2022-09-15T01:08:20.694Z,31.38
2022-09-15T01:09:20.624Z,31.58
2022-09-15T01:10:20.539Z,31.67
2022-09-15T01:11:20.470Z,32.25
2022-09-15T01:12:20.391Z,32.44
2022-09-15T01:13:20.312Z,32.73
2022-09-15T01:14:20.235Z,32.73
2022-09-15T01:15:20.158Z,32.44
2022-09-15T01:16:20.160Z,32.25
2022-09-15T01:17:20.019Z,32.44
2022-09-15T01:18:19.926Z,32.25
2022-09-15T01:19:19.853Z,32.34
2022-09-15T01:20:19.773Z,32.34
2022-09-15T01:21:19.698Z,32.64
2022-09-15T01:22:19.625Z,32.92
2022-09-15T01:23:19.549Z,32.92
2022-09-15T01:24:19.474Z,32.92
2022-09-15T01:25:19.395Z,32.92
2022-09-15T01:26:19.317Z,33.11
2022-09-15T01:27:41.224Z,33.78
2022-09-15T01:28:19.159Z,33.11
2022-09-15T01:29:21.249Z,33.31
2022-09-15T01:30:19.013Z,33.59
2022-09-15T01:31:18.970Z,33.69
2022-09-15T01:32:18.852Z,34.07
2022-09-15T01:33:18.777Z,34.07
2022-09-15T01:34:18.703Z,34.36
2022-09-15T01:35:18.623Z,33.40
2022-09-15T01:36:18.553Z,32.92
2022-09-15T01:37:18.471Z,33.01
2022-09-15T01:38:18.395Z,33.01
2022-09-15T01:39:18.316Z,32.73
2022-09-15T01:40:18.352Z,32.92
2022-09-15T01:41:18.164Z,32.92
2022-09-15T01:42:18.087Z,32.73
2022-09-15T01:43:18.011Z,32.54
2022-09-15T01:44:17.938Z,31.96
2022-09-15T01:45:17.862Z,31.96
2022-09-15T01:46:17.842Z,31.96
2022-09-15T01:47:17.708Z,32.34
2022-09-15T01:48:17.628Z,32.54
2022-09-15T01:49:17.552Z,32.44
2022-09-15T01:50:17.476Z,32.64
2022-09-15T01:51:17.399Z,32.54
2022-09-15T01:52:17.322Z,32.73
2022-09-15T01:53:17.248Z,32.92
2022-09-15T01:54:17.167Z,33.11
2022-09-15T01:55:17.089Z,33.01
2022-09-15T01:56:17.015Z,33.31
2022-09-15T01:57:16.936Z,33.11
2022-09-15T01:58:16.861Z,33.01
2022-09-15T01:59:16.784Z,32.92
2022-09-15T02:00:16.708Z,33.31
2022-09-15T02:01:16.790Z,33.31
2022-09-15T02:02:16.595Z,34.07
2022-09-15T02:03:16.477Z,34.07
2022-09-15T02:04:16.401Z,34.07
2022-09-15T02:05:16.321Z,33.78
2022-09-15T02:06:16.245Z,33.88
2022-09-15T02:07:16.168Z,33.88
2022-09-15T02:08:16.096Z,33.69
2022-09-15T02:09:16.018Z,33.78
2022-09-15T02:10:15.942Z,34.27
2022-09-15T02:11:15.859Z,34.27
2022-09-15T02:12:15.784Z,34.36
2022-09-15T02:13:15.708Z,34.55
2022-09-15T02:14:15.635Z,34.84
2022-09-15T02:15:15.556Z,35.13
2022-09-15T02:16:15.539Z,35.22
2022-09-15T02:17:15.401Z,35.22
2022-09-15T02:18:15.321Z,35.32
2022-09-15T02:19:15.252Z,35.32
2022-09-15T02:20:15.176Z,34.94
2022-09-15T02:21:15.096Z,35.13
2022-09-15T02:22:15.019Z,35.03
2022-09-15T02:23:14.942Z,35.13
2022-09-15T02:24:14.863Z,35.51
2022-09-15T02:25:14.790Z,35.61
2022-09-15T02:26:14.707Z,35.80
2022-09-15T02:27:14.633Z,35.80
2022-09-15T02:28:14.556Z,36.38
2022-09-15T02:29:14.479Z,36.76
2022-09-15T02:30:14.406Z,36.76
2022-09-15T02:31:14.362Z,36.86
2022-09-15T02:32:14.253Z,36.76
2022-09-15T02:33:14.181Z,36.95
2022-09-15T02:34:14.098Z,36.66
2022-09-15T02:35:14.025Z,36.95
2022-09-15T02:36:13.948Z,36.76
2022-09-15T02:37:13.867Z,36.95
2022-09-15T02:38:13.791Z,37.15
2022-09-15T02:39:13.713Z,37.24
2022-09-15T02:40:13.704Z,36.76
2022-09-15T02:41:13.560Z,35.99
2022-09-15T02:42:13.488Z,36.57
2022-09-15T02:43:13.406Z,36.18
2022-09-15T02:44:13.327Z,35.51
2022-09-15T02:45:13.252Z,35.13
2022-09-15T02:46:13.216Z,35.32
2022-09-15T02:47:13.099Z,35.51
2022-09-15T02:48:13.026Z,35.51
2022-09-15T02:49:12.950Z,35.03
2022-09-15T02:50:12.868Z,34.94
2022-09-15T02:51:12.795Z,35.51
2022-09-15T02:52:12.716Z,35.42
2022-09-15T02:53:12.642Z,34.94
2022-09-15T02:54:12.561Z,35.42
2022-09-15T02:55:12.487Z,35.03
2022-09-15T02:56:12.406Z,34.94
2022-09-15T02:57:12.338Z,34.55
2022-09-15T02:58:12.257Z,34.55
2022-09-15T02:59:12.181Z,34.45
2022-09-15T03:00:12.102Z,34.07
2022-09-15T03:01:12.155Z,33.98
2022-09-15T03:02:12.059Z,34.07
2022-09-15T03:03:11.871Z,34.65
2022-09-15T03:04:11.795Z,34.07
2022-09-15T03:05:11.717Z,34.07
2022-09-15T03:06:11.643Z,33.88
2022-09-15T03:07:11.564Z,34.17
2022-09-15T03:08:11.491Z,33.98
2022-09-15T03:09:11.413Z,34.07
2022-09-15T03:10:11.329Z,34.36
2022-09-15T03:11:11.256Z,34.17
2022-09-15T03:12:11.180Z,34.65
2022-09-15T03:13:11.098Z,34.36
2022-09-15T03:14:11.022Z,34.55
2022-09-15T03:15:10.951Z,35.32
2022-09-15T03:16:10.945Z,35.13
2022-09-15T03:17:10.805Z,35.22
2022-09-15T03:18:10.717Z,35.42
2022-09-15T03:19:10.641Z,35.13
2022-09-15T03:20:10.564Z,35.42
2022-09-15T03:21:10.490Z,35.42
2022-09-15T03:22:10.414Z,35.61
2022-09-15T03:23:10.337Z,35.71
2022-09-15T03:24:10.256Z,36.66
2022-09-15T03:25:10.180Z,36.47
2022-09-15T03:26:10.099Z,36.95
2022-09-15T03:27:10.024Z,36.76
2022-09-15T03:28:09.952Z,37.05
2022-09-15T03:29:09.874Z,36.97
2022-09-15T03:30:09.798Z,37.26
2022-09-15T03:31:09.763Z,37.45
2022-09-15T03:32:09.640Z,37.91
2022-09-15T03:33:09.566Z,38.10
2022-09-15T03:34:09.490Z,38.78
2022-09-15T03:35:09.413Z,37.91
2022-09-15T03:36:09.343Z,38.39
2022-09-15T03:37:09.262Z,38.01
2022-09-15T03:38:09.183Z,37.43
2022-09-15T03:39:09.107Z,37.91
2022-09-15T03:40:09.082Z,37.72
2022-09-15T03:41:08.953Z,37.53
2022-09-15T03:42:08.876Z,37.43
2022-09-15T03:43:08.801Z,36.95
2022-09-15T03:44:08.723Z,37.43
2022-09-15T03:45:08.647Z,37.15
2022-09-15T03:46:08.613Z,37.53
2022-09-15T03:47:08.487Z,37.82
2022-09-15T03:48:08.416Z,38.49
2022-09-15T03:49:08.341Z,38.59
2022-09-15T03:50:08.260Z,38.68
2022-09-15T03:51:08.186Z,38.68
2022-09-15T03:52:08.108Z,38.59
2022-09-15T03:53:08.034Z,38.68
2022-09-15T03:54:07.955Z,38.39
2022-09-15T03:55:07.879Z,38.20
2022-09-15T03:56:07.805Z,38.78
2022-09-15T03:57:07.721Z,38.59
2022-09-15T03:58:07.649Z,38.87
2022-09-15T03:59:07.565Z,38.78
2022-09-15T04:00:07.492Z,38.96
2022-09-15T04:01:07.458Z,39.06
2022-09-15T04:02:07.361Z,39.26
2022-09-15T04:03:07.265Z,39.54
2022-09-15T04:04:07.184Z,39.73
2022-09-15T04:05:07.107Z,40.12
2022-09-15T04:06:07.035Z,39.93
2022-09-15T04:07:06.954Z,39.83
2022-09-15T04:08:06.880Z,40.02
2022-09-15T04:09:06.800Z,40.70
2022-09-15T04:10:06.727Z,40.79
2022-09-15T04:11:06.652Z,40.99
2022-09-15T04:12:06.573Z,41.27
2022-09-15T04:13:06.495Z,41.27
2022-09-15T04:14:06.416Z,41.17
2022-09-15T04:15:06.341Z,41.37
2022-09-15T04:16:06.315Z,41.56
2022-09-15T04:17:06.191Z,41.66
2022-09-15T04:18:06.113Z,41.56
2022-09-15T04:19:06.038Z,41.75
2022-09-15T04:20:05.957Z,42.13
2022-09-15T04:21:05.884Z,42.04
2022-09-15T04:22:05.810Z,42.13
2022-09-15T04:23:05.730Z,42.13
2022-09-15T04:24:05.647Z,41.75
2022-09-15T04:25:05.573Z,42.04
2022-09-15T04:26:05.497Z,42.52
2022-09-15T04:27:05.420Z,42.61
2022-09-15T04:28:05.343Z,42.71
2022-09-15T04:29:05.272Z,42.81
2022-09-15T04:30:05.187Z,42.52
2022-09-15T04:31:05.181Z,43.10
2022-09-15T04:32:05.034Z,43.19
2022-09-15T04:33:04.962Z,42.90
2022-09-15T04:34:04.878Z,42.71
2022-09-15T04:35:04.807Z,42.61
2022-09-15T04:36:04.736Z,42.71
2022-09-15T04:37:04.646Z,42.71
2022-09-15T04:38:04.571Z,42.33
2022-09-15T04:39:04.495Z,42.71
2022-09-15T04:40:04.488Z,43.00
2022-09-15T04:41:04.346Z,43.19
2022-09-15T04:42:04.265Z,43.10
2022-09-15T04:43:04.191Z,43.10
2022-09-15T04:44:04.113Z,43.00
2022-09-15T04:45:04.030Z,43.10
2022-09-15T04:46:03.959Z,42.81
2022-09-15T04:47:03.953Z,42.90
2022-09-15T04:48:03.810Z,42.52
2022-09-15T04:49:03.725Z,42.71
2022-09-15T04:50:03.647Z,42.71
2022-09-15T04:51:03.577Z,42.81
2022-09-15T04:52:07.747Z,42.52
2022-09-15T04:53:03.423Z,42.71
2022-09-15T04:54:03.345Z,42.81
2022-09-15T04:55:03.266Z,42.71
2022-09-15T04:56:03.187Z,42.90
2022-09-15T04:57:03.119Z,42.90
2022-09-15T04:58:03.037Z,43.19
2022-09-15T04:59:04.324Z,43.00
2022-09-15T05:00:02.881Z,43.19
2022-09-15T05:01:02.866Z,43.57
2022-09-15T05:02:02.763Z,43.48
2022-09-15T05:03:02.652Z,43.48
2022-09-15T05:04:02.576Z,44.15
2022-09-15T05:05:02.498Z,44.24
2022-09-15T05:06:02.418Z,44.34
2022-09-15T05:07:02.341Z,44.82
2022-09-15T05:08:02.272Z,44.54
2022-09-15T05:09:04.439Z,45.11
2022-09-15T05:10:02.115Z,45.40
2022-09-15T05:11:02.037Z,45.21
2022-09-15T05:12:01.966Z,45.88
2022-09-15T05:13:01.882Z,46.26
2022-09-15T05:14:01.806Z,46.07
2022-09-15T05:15:01.731Z,45.98
2022-09-15T05:16:01.677Z,46.94
2022-09-15T05:17:01.585Z,46.55
2022-09-15T05:18:01.498Z,47.13
2022-09-15T05:19:01.428Z,46.84
2022-09-15T05:20:01.356Z,47.51
2022-09-15T05:21:01.266Z,47.41
2022-09-15T05:22:01.203Z,47.32
2022-09-15T05:23:01.118Z,47.22
2022-09-15T05:24:01.033Z,47.61
2022-09-15T05:25:00.958Z,47.99
2022-09-15T05:26:00.888Z,47.51
2022-09-15T05:27:00.809Z,47.80
2022-09-15T05:28:00.731Z,47.51
2022-09-15T05:29:00.658Z,47.71
2022-09-15T05:30:31.966Z,48.57
2022-09-15T05:31:00.573Z,48.47
2022-09-15T05:32:00.424Z,48.28
2022-09-15T05:33:00.343Z,48.47
2022-09-15T05:34:00.271Z,48.95
2022-09-15T05:35:00.199Z,49.24
2022-09-15T05:36:00.115Z,49.62
2022-09-15T05:37:00.038Z,49.33
2022-09-15T05:37:59.960Z,48.95
2022-09-15T05:38:59.886Z,48.95
2022-09-15T05:39:59.833Z,49.62
2022-09-15T05:40:59.734Z,50.87
2022-09-15T05:41:59.653Z,51.16
2022-09-15T05:42:59.580Z,50.99
2022-09-15T05:43:59.501Z,50.61
2022-09-15T05:44:59.424Z,52.05
2022-09-15T05:45:59.350Z,51.95
2022-09-15T05:46:59.359Z,51.95
2022-09-15T05:47:59.193Z,52.43
2022-09-15T05:48:59.123Z,53.39
2022-09-15T05:49:59.040Z,54.55
2022-09-15T05:50:58.962Z,55.02
2022-09-15T05:51:58.886Z,54.55
2022-09-15T05:52:58.808Z,54.64
2022-09-15T05:53:58.734Z,55.12
2022-09-15T05:54:59.405Z,55.12
2022-09-15T05:55:58.578Z,55.60
2022-09-15T05:56:58.498Z,55.60
2022-09-15T05:57:58.432Z,55.69
2022-09-15T05:58:58.347Z,55.69
2022-09-15T05:59:58.275Z,58.29
2022-09-15T06:00:58.192Z,58.29
2022-09-15T06:01:58.147Z,59.73
2022-09-15T06:02:58.114Z,59.44
2022-09-15T06:03:57.969Z,59.34
2022-09-15T06:04:57.888Z,58.39
2022-09-15T06:05:57.806Z,58.48
2022-09-15T06:06:57.732Z,59.34
2022-09-15T06:07:57.654Z,59.54
2022-09-15T06:08:58.956Z,60.11
2022-09-15T06:09:57.509Z,59.83
2022-09-15T06:10:57.427Z,61.20
2022-09-15T06:11:57.352Z,61.27
2022-09-15T06:12:57.272Z,61.30
2022-09-15T06:13:57.198Z,60.98
2022-09-15T06:14:57.150Z,60.78
2022-09-15T06:15:57.102Z,60.60
2022-09-15T06:16:56.968Z,60.34
2022-09-15T06:17:56.887Z,61.11
2022-09-15T06:18:56.816Z,63.89
2022-09-15T06:19:56.740Z,64.09
2022-09-15T06:20:56.661Z,64.25
2022-09-15T06:21:56.589Z,64.56
2022-09-15T06:22:56.507Z,63.99
2022-09-15T06:23:56.430Z,64.37
2022-09-15T06:24:56.365Z,68.51
2022-09-15T06:25:56.277Z,69.05
2022-09-15T06:26:56.203Z,67.74
2022-09-15T06:27:56.123Z,66.87
2022-09-15T06:28:56.043Z,66.10
2022-09-15T06:29:55.979Z,66.39
2022-09-15T06:30:55.893Z,66.77
2022-09-15T06:31:56.000Z,67.83
2022-09-15T06:32:55.740Z,68.02
2022-09-15T06:33:55.662Z,68.98
2022-09-15T06:34:55.594Z,69.08
2022-09-15T06:35:55.512Z,69.27
2022-09-15T06:36:55.434Z,68.98
2022-09-15T06:37:55.361Z,69.08
2022-09-15T06:38:55.281Z,69.85
2022-09-15T06:39:55.275Z,72.92
2022-09-15T06:40:55.130Z,73.41
2022-09-15T06:42:04.247Z,72.16
2022-09-15T06:42:54.979Z,74.60
2022-09-15T06:43:54.899Z,74.60
2022-09-15T06:44:54.822Z,74.30
2022-09-15T06:45:54.780Z,73.31
2022-09-15T06:46:54.671Z,73.15
2022-09-15T06:48:07.603Z,72.09
2022-09-15T06:48:54.562Z,72.67
2022-09-15T06:49:54.436Z,72.86
2022-09-15T06:50:54.366Z,73.63
2022-09-15T06:51:54.287Z,74.50
2022-09-15T06:52:54.212Z,76.71
2022-09-15T06:53:54.134Z,77.29
2022-09-15T06:54:54.055Z,76.81
2022-09-15T06:55:53.994Z,78.15
2022-09-15T06:56:53.905Z,78.98
2022-09-15T06:57:53.824Z,78.88
2022-09-15T06:58:53.891Z,78.78
2022-09-15T06:59:53.677Z,77.92
2022-09-15T07:00:53.595Z,76.77
2022-09-15T07:01:53.576Z,78.02
2022-09-15T07:02:53.683Z,78.30
2022-09-15T07:03:53.461Z,78.30
2022-09-15T07:04:53.295Z,76.86
2022-09-15T07:05:53.211Z,75.23
2022-09-15T07:06:53.144Z,74.85
2022-09-15T07:07:53.059Z,75.07
2022-09-15T07:08:53.102Z,74.50
2022-09-15T07:09:52.910Z,75.52
2022-09-15T07:10:52.834Z,75.37
2022-09-15T07:11:52.763Z,76.90
2022-09-15T07:12:52.683Z,77.96
2022-09-15T07:13:52.632Z,79.60
2022-09-15T07:14:52.524Z,79.02
2022-09-15T07:15:52.471Z,78.25
2022-09-15T07:16:52.392Z,79.02
2022-09-15T07:17:52.317Z,79.11
2022-09-15T07:18:52.222Z,80.71
2022-09-15T07:19:52.141Z,80.80
2022-09-15T07:20:52.067Z,79.55
2022-09-15T07:21:51.995Z,79.65
2022-09-15T07:22:51.916Z,80.90
2022-09-15T07:23:52.067Z,78.92
2022-09-15T07:24:51.766Z,78.40
2022-09-15T07:25:51.684Z,78.21
2022-09-15T07:26:51.608Z,76.48
2022-09-15T07:27:51.532Z,77.15
2022-09-15T07:28:51.452Z,77.92
2022-09-15T07:29:51.378Z,78.30
2022-09-15T07:30:51.299Z,79.07
2022-09-15T07:31:51.286Z,79.27
2022-09-15T07:32:51.145Z,78.88
2022-09-15T07:33:51.196Z,78.78
2022-09-15T07:34:50.994Z,78.78
2022-09-15T07:35:50.919Z,78.63
2022-09-15T07:36:50.843Z,78.21
2022-09-15T07:37:50.763Z,78.06
2022-09-15T07:38:50.688Z,79.07
2022-09-15T07:39:50.622Z,79.84
2022-09-15T07:40:50.531Z,78.63
2022-09-15T07:41:50.459Z,78.44
2022-09-15T07:42:50.385Z,78.83
2022-09-15T07:43:50.306Z,79.21
2022-09-15T07:44:50.253Z,79.69
2022-09-15T07:45:50.216Z,80.84
2022-09-15T07:46:50.074Z,81.81
2022-09-15T07:47:50.011Z,81.90
2022-09-15T07:48:49.919Z,79.79
2022-09-15T07:49:49.846Z,79.79
2022-09-15T07:50:49.772Z,80.94
2022-09-15T07:51:49.695Z,82.96
2022-09-15T07:52:49.619Z,83.92
2022-09-15T07:53:49.540Z,83.44
2022-09-15T07:54:49.464Z,81.81
2022-09-15T07:55:49.388Z,80.65
2022-09-15T07:56:49.310Z,80.84
2022-09-15T07:57:49.235Z,81.42
2022-09-15T07:58:49.163Z,79.98
2022-09-15T07:59:49.082Z,79.79
2022-09-15T08:00:49.059Z,82.48
2022-09-15T08:01:48.939Z,82.29
2022-09-15T08:02:48.859Z,81.04
2022-09-15T08:03:48.787Z,79.79
2022-09-15T08:04:48.698Z,79.88
2022-09-15T08:05:48.630Z,79.69
2022-09-15T08:06:48.554Z,79.73
2022-09-15T08:07:48.468Z,80.40
2022-09-15T08:08:48.397Z,80.79
2022-09-15T08:09:48.314Z,82.52
2022-09-15T08:10:48.240Z,82.42
2022-09-15T08:11:48.165Z,80.88
2022-09-15T08:12:48.089Z,81.70
2022-09-15T08:13:48.016Z,83.91
2022-09-15T08:14:47.933Z,83.72
2022-09-15T08:15:47.930Z,83.33
2022-09-15T08:16:47.784Z,84.77
2022-09-15T08:17:47.705Z,84.19
2022-09-15T08:18:47.634Z,86.22
2022-09-15T08:19:47.555Z,89.49
2022-09-15T08:20:47.480Z,88.71
2022-09-15T08:21:47.404Z,89.24
2022-09-15T08:22:47.331Z,89.43
2022-09-15T08:23:47.248Z,93.29
2022-09-15T08:24:47.177Z,92.42
2022-09-15T08:25:47.099Z,91.75
2022-09-15T08:26:47.024Z,93.67
2022-09-15T08:27:46.947Z,92.61
2022-09-15T08:28:46.870Z,91.84
2022-09-15T08:29:46.799Z,92.61
2022-09-15T08:30:46.730Z,91.75
2022-09-15T08:31:46.701Z,93.87
2022-09-15T08:32:46.570Z,94.25
2022-09-15T08:33:46.489Z,94.15
2022-09-15T08:34:46.419Z,93.62
2022-09-15T08:35:46.338Z,93.38
2022-09-15T08:36:46.261Z,92.71
2022-09-15T08:37:46.188Z,93.87
2022-09-15T08:38:46.114Z,92.71
2022-09-15T08:39:46.075Z,92.22
2022-09-15T08:40:45.964Z,91.94
2022-09-15T08:41:45.886Z,92.32
2022-09-15T08:42:45.816Z,91.94
2022-09-15T08:43:45.734Z,91.65
2022-09-15T08:44:45.663Z,90.97
2022-09-15T08:45:45.583Z,90.69
2022-09-15T08:46:45.612Z,90.11
2022-09-15T08:47:45.434Z,89.92
2022-09-15T08:48:45.358Z,90.59
2022-09-15T08:49:51.956Z,90.88
2022-09-15T08:50:45.202Z,90.78
2022-09-15T08:51:45.126Z,89.63
2022-09-15T08:52:45.051Z,89.68
2022-09-15T08:53:45.047Z,88.85
2022-09-15T08:54:44.902Z,88.09
2022-09-15T08:55:44.839Z,87.85
2022-09-15T08:56:44.753Z,86.51
2022-09-15T08:57:44.678Z,85.78
2022-09-15T08:58:44.598Z,88.04
2022-09-15T08:59:44.531Z,87.08
2022-09-15T09:00:44.451Z,86.22
2022-09-15T09:01:44.457Z,85.16
2022-09-15T09:02:44.358Z,85.16
2022-09-15T09:03:44.228Z,84.29
2022-09-15T09:04:44.144Z,86.60
2022-09-15T09:05:44.076Z,85.44
2022-09-15T09:06:43.993Z,85.83
2022-09-15T09:07:43.914Z,85.93
2022-09-15T09:08:43.847Z,84.39
2022-09-15T09:09:43.783Z,87.27
2022-09-15T09:10:43.757Z,87.46
2022-09-15T09:11:43.625Z,86.41
2022-09-15T09:12:43.549Z,86.51
2022-09-15T09:13:43.462Z,86.60
2022-09-15T09:14:43.390Z,87.18
2022-09-15T09:15:43.375Z,87.27
2022-09-15T09:16:43.239Z,86.74
2022-09-15T09:17:43.160Z,88.67
2022-09-15T09:18:43.093Z,87.22
2022-09-15T09:19:43.016Z,87.80
2022-09-15T09:20:42.942Z,87.22
2022-09-15T09:21:42.867Z,87.32
2022-09-15T09:22:42.787Z,88.57
2022-09-15T09:23:42.760Z,88.18
2022-09-15T09:24:42.628Z,87.80
2022-09-15T09:25:42.560Z,86.93
2022-09-15T09:26:42.481Z,86.83
2022-09-15T09:27:42.405Z,87.12
2022-09-15T09:28:42.352Z,87.41
2022-09-15T09:29:42.255Z,90.50
2022-09-15T09:30:42.219Z,88.85
2022-09-15T09:31:42.109Z,89.53
2022-09-15T09:32:42.035Z,89.05
2022-09-15T09:33:46.795Z,88.18
2022-09-15T09:34:41.896Z,86.65
2022-09-15T09:35:41.806Z,86.16
2022-09-15T09:36:41.730Z,84.91
2022-09-15T09:37:41.653Z,85.87
2022-09-15T09:38:41.581Z,85.39
2022-09-15T09:39:41.499Z,84.72
2022-09-15T09:40:41.429Z,84.14
2022-09-15T09:41:41.357Z,82.98
2022-09-15T09:42:41.282Z,82.41
2022-09-15T09:43:41.205Z,82.31
2022-09-15T09:44:41.132Z,81.54
2022-09-15T09:45:41.050Z,81.73
2022-09-15T09:46:41.146Z,81.06
2022-09-15T09:47:40.894Z,80.92
2022-09-15T09:48:40.820Z,81.60
2022-09-15T09:49:40.751Z,80.06
2022-09-15T09:50:40.670Z,78.90
2022-09-15T09:51:40.595Z,78.42
2022-09-15T09:52:40.523Z,78.03
2022-09-15T09:53:40.443Z,77.56
2022-09-15T09:54:40.368Z,78.03
2022-09-15T09:55:40.296Z,77.08
2022-09-15T09:56:40.220Z,76.11
2022-09-15T09:57:40.926Z,75.63
2022-09-15T09:58:40.071Z,74.86
2022-09-15T09:59:39.994Z,74.38
2022-09-15T10:00:39.916Z,73.90
2022-09-15T10:01:39.889Z,73.61
2022-09-15T10:02:39.767Z,73.13
2022-09-15T10:03:39.689Z,73.51
2022-09-15T10:04:39.642Z,75.05
2022-09-15T10:05:39.540Z,75.15
2022-09-15T10:06:39.459Z,74.29
2022-09-15T10:07:39.390Z,73.71
2022-09-15T10:08:39.312Z,74.09
2022-09-15T10:09:39.230Z,73.32
2022-09-15T10:10:39.155Z,72.45
2022-09-15T10:11:39.082Z,72.26
2022-09-15T10:12:39.009Z,71.20
2022-09-15T10:13:38.933Z,73.42
2022-09-15T10:14:38.859Z,73.80
2022-09-15T10:15:38.782Z,75.63
2022-09-15T10:16:38.782Z,75.63
2022-09-15T10:17:38.633Z,74.38
2022-09-15T10:18:38.557Z,73.99
2022-09-15T10:19:38.478Z,72.74
2022-09-15T10:20:38.397Z,72.65
2022-09-15T10:21:38.331Z,72.71
2022-09-15T10:22:38.248Z,75.05
2022-09-15T10:23:38.177Z,75.59
2022-09-15T10:24:38.097Z,74.92
2022-09-15T10:25:58.729Z,73.57
2022-09-15T10:26:37.943Z,74.92
2022-09-15T10:27:37.869Z,75.21
2022-09-15T10:28:37.794Z,78.19
2022-09-15T10:29:37.723Z,78.00
2022-09-15T10:30:37.653Z,79.53
2022-09-15T10:31:37.615Z,79.53
2022-09-15T10:32:37.494Z,79.35
2022-09-15T10:33:37.423Z,80.79
2022-09-15T10:34:37.342Z,80.50
2022-09-15T10:35:37.266Z,79.82
2022-09-15T10:36:37.202Z,79.25
2022-09-15T10:37:37.113Z,78.96
2022-09-15T10:38:37.041Z,78.48
2022-09-15T10:39:36.960Z,78.00
2022-09-15T10:40:36.928Z,78.09
2022-09-15T10:41:36.812Z,77.04
2022-09-15T10:42:36.745Z,76.75
2022-09-15T10:43:36.657Z,77.04
2022-09-15T10:44:36.585Z,78.61
2022-09-15T10:45:36.528Z,78.00
2022-09-15T10:46:39.361Z,78.13
2022-09-15T10:47:36.358Z,78.96
2022-09-15T10:48:36.283Z,81.17
2022-09-15T10:49:36.207Z,80.02
2022-09-15T10:50:36.134Z,78.58
2022-09-15T10:51:36.052Z,78.48
2022-09-15T10:52:35.984Z,77.04
2022-09-15T10:53:35.903Z,77.71
2022-09-15T10:54:35.832Z,77.61
2022-09-15T10:55:52.301Z,78.58
2022-09-15T10:56:35.673Z,79.25
2022-09-15T10:57:35.599Z,81.17
2022-09-15T10:58:35.520Z,81.04
2022-09-15T10:59:35.450Z,81.04
2022-09-15T11:00:35.411Z,79.60
2022-09-15T11:01:35.293Z,78.63
2022-09-15T11:02:35.286Z,78.63
2022-09-15T11:03:35.144Z,77.29
2022-09-15T11:04:35.067Z,76.61
2022-09-15T11:05:34.993Z,76.90
2022-09-15T11:06:34.920Z,75.46
2022-09-15T11:07:34.834Z,75.65
2022-09-15T11:08:34.762Z,75.46
2022-09-15T11:09:34.687Z,77.09
2022-09-15T11:10:34.609Z,77.00
2022-09-15T11:11:34.534Z,76.52
2022-09-15T11:12:34.456Z,75.56
2022-09-15T11:13:34.379Z,75.46
2022-09-15T11:14:34.307Z,75.46
2022-09-15T11:15:34.234Z,76.14
2022-09-15T11:16:34.187Z,75.75
2022-09-15T11:17:34.078Z,75.37
2022-09-15T11:18:34.013Z,75.94
2022-09-15T11:19:33.933Z,75.37
2022-09-15T11:20:33.849Z,76.61
2022-09-15T11:21:33.781Z,75.37
2022-09-15T11:22:33.693Z,76.52
2022-09-15T11:23:33.622Z,77.67
2022-09-15T11:24:33.540Z,76.90
2022-09-15T11:25:33.466Z,75.56
2022-09-15T11:26:33.388Z,75.07
2022-09-15T11:27:33.344Z,74.79
2022-09-15T11:28:33.238Z,74.40
2022-09-15T11:29:33.159Z,73.44
2022-09-15T11:30:33.092Z,74.02
2022-09-15T11:31:33.047Z,73.54
2022-09-15T11:32:32.934Z,76.56
2022-09-15T11:33:32.864Z,76.81
2022-09-15T11:34:32.778Z,76.81
2022-09-15T11:35:32.710Z,78.38
2022-09-15T11:36:32.633Z,79.02
2022-09-15T11:37:32.550Z,79.05
2022-09-15T11:38:32.480Z,78.67
2022-09-15T11:39:32.404Z,77.23
2022-09-15T11:40:32.354Z,78.19
2022-09-15T11:41:32.255Z,78.58
2022-09-15T11:42:32.175Z,78.67
2022-09-15T11:43:32.103Z,79.44
2022-09-15T11:44:32.024Z,78.77
2022-09-15T11:45:31.945Z,78.38
2022-09-15T11:46:31.919Z,78.58
2022-09-15T11:47:31.799Z,79.05
2022-09-15T11:48:31.719Z,79.15
2022-09-15T11:49:31.643Z,77.90
2022-09-15T11:50:31.567Z,78.90
2022-09-15T11:51:31.494Z,80.11
2022-09-15T11:52:31.411Z,79.05
2022-09-15T11:53:31.335Z,79.28
2022-09-15T11:54:31.661Z,81.02
2022-09-15T11:55:31.189Z,80.92
2022-09-15T11:56:31.111Z,79.63
2022-09-15T11:57:31.037Z,80.15
2022-09-15T11:58:30.958Z,79.19
2022-09-15T11:59:30.888Z,78.81
2022-09-15T12:00:30.814Z,81.12
2022-09-15T12:01:30.774Z,78.65
2022-09-15T12:02:30.704Z,80.38
2022-09-15T12:03:30.582Z,81.58
2022-09-15T12:04:30.518Z,83.22
2022-09-15T12:05:30.426Z,88.61
2022-09-15T12:06:30.363Z,89.09
2022-09-15T12:07:30.278Z,91.12
2022-09-15T12:08:30.207Z,91.50
2022-09-15T12:09:30.139Z,94.01
2022-09-15T12:10:30.057Z,92.27
2022-09-15T12:11:29.991Z,90.83
2022-09-15T12:12:30.880Z,89.67
2022-09-15T12:13:29.827Z,90.16
2022-09-15T12:14:29.748Z,90.73
2022-09-15T12:15:29.681Z,91.99
2022-09-15T12:16:29.602Z,93.38
2022-09-15T12:17:29.528Z,90.88
2022-09-15T12:18:46.673Z,91.84
2022-09-15T12:19:29.372Z,90.88
2022-09-15T12:20:29.300Z,91.65
2022-09-15T12:21:29.225Z,91.65
2022-09-15T12:22:29.155Z,91.65
2022-09-15T12:23:29.075Z,92.80
2022-09-15T12:24:29.000Z,94.92
2022-09-15T12:25:28.934Z,95.12
2022-09-15T12:26:28.851Z,95.79
2022-09-15T12:27:28.773Z,94.15
2022-09-15T12:28:28.738Z,94.06
2022-09-15T12:29:28.627Z,95.12
2022-09-15T12:30:28.552Z,94.54
2022-09-15T12:31:28.509Z,94.82
2022-09-15T12:32:28.400Z,94.20
2022-09-15T12:33:28.327Z,92.95
2022-09-15T12:34:28.245Z,92.03
2022-09-15T12:35:28.171Z,90.78
2022-09-15T12:36:29.101Z,90.78
2022-09-15T12:37:28.021Z,91.84
2022-09-15T12:38:27.945Z,95.50
2022-09-15T12:39:27.871Z,96.66
2022-09-15T12:40:27.871Z,96.70
2022-09-15T12:41:27.743Z,96.22
2022-09-15T12:42:27.647Z,96.89
2022-09-15T12:43:27.572Z,98.34
2022-09-15T12:44:27.495Z,97.67
2022-09-15T12:45:27.415Z,96.80
2022-09-15T12:46:27.422Z,95.65
2022-09-15T12:47:27.259Z,94.97
2022-09-15T12:48:27.196Z,94.87
2022-09-15T12:49:27.115Z,94.68
2022-09-15T12:50:27.041Z,94.20
2022-09-15T12:51:26.964Z,93.62